sensor_id;sensor_type;location;lat;lon;timestamp;temperature;humidity
10433;DHT22;5263;48.680;9.004;2022-11-11T00:00:32;3.80;99.90
10433;DHT22;5263;48.680;9.004;2022-11-11T00:02:58;3.70;99.90
10433;DHT22;5263;48.680;9.004;2022-11-11T00:05:25;3.70;99.90
10433;DHT22;5263;48.680;9.004;2022-11-11T01:58:45;3.30;99.90
10433;DHT22;5263;48.680;9.004;2022-11-11T02:01:11;3.20;99.90
10433;DHT22;5263;48.680;9.004;2022-11-11T02:03:40;3.00;99.90
10433;DHT22;5263;48.680;9.004;2022-11-11T02:06:27;2.90;99.90
10433;DHT22;5263;48.680;9.004;2022-11-11T02:08:53;2.90;99.90
10433;DHT22;5263;48.680;9.004;2022-11-11T02:11:21;2.90;99.90
10433;DHT22;5263;48.680;9.004;2022-11-11T02:14:07;2.90;99.90
10433;DHT22;5263;48.680;9.004;2022-11-11T02:16:52;3.00;99.90
10433;DHT22;5263;48.680;9.004;2022-11-11T02:19:23;3.00;99.90
10433;DHT22;5263;48.680;9.004;2022-11-11T02:21:59;3.00;99.90
10433;DHT22;5263;48.680;9.004;2022-11-11T02:24:26;2.80;99.90
10433;DHT22;5263;48.680;9.004;2022-11-11T02:26:54;2.80;99.90
10433;DHT22;5263;48.680;9.004;2022-11-11T02:29:22;2.90;99.90
10433;DHT22;5263;48.680;9.004;2022-11-11T02:31:48;2.70;99.90
10433;DHT22;5263;48.680;9.004;2022-11-11T02:34:14;2.70;99.90
10433;DHT22;5263;48.680;9.004;2022-11-11T02:36:40;2.80;99.90
10433;DHT22;5263;48.680;9.004;2022-11-11T02:39:07;2.90;99.90
10433;DHT22;5263;48.680;9.004;2022-11-11T02:41:32;2.80;99.90
10433;DHT22;5263;48.680;9.004;2022-11-11T02:44:17;2.90;99.90
10433;DHT22;5263;48.680;9.004;2022-11-11T02:46:42;3.00;99.90
10433;DHT22;5263;48.680;9.004;2022-11-11T02:49:08;2.80;99.90
10433;DHT22;5263;48.680;9.004;2022-11-11T02:51:33;2.60;99.90
10433;DHT22;5263;48.680;9.004;2022-11-11T02:53:59;2.50;99.90
10433;DHT22;5263;48.680;9.004;2022-11-11T02:56:27;2.40;99.90
10433;DHT22;5263;48.680;9.004;2022-11-11T02:59:11;2.50;99.90
10433;DHT22;5263;48.680;9.004;2022-11-11T03:01:37;2.80;99.90
10433;DHT22;5263;48.680;9.004;2022-11-11T03:04:03;2.80;99.90
10433;DHT22;5263;48.680;9.004;2022-11-11T03:06:29;2.80;99.90
10433;DHT22;5263;48.680;9.004;2022-11-11T03:08:54;2.80;99.90
10433;DHT22;5263;48.680;9.004;2022-11-11T03:11:20;2.80;99.90
10433;DHT22;5263;48.680;9.004;2022-11-11T03:13:55;2.90;99.90
10433;DHT22;5263;48.680;9.004;2022-11-11T03:16:21;2.80;99.90
10433;DHT22;5263;48.680;9.004;2022-11-11T03:19:06;2.80;99.90
10433;DHT22;5263;48.680;9.004;2022-11-11T03:21:32;3.00;99.90
10433;DHT22;5263;48.680;9.004;2022-11-11T03:23:57;3.00;99.90
10433;DHT22;5263;48.680;9.004;2022-11-11T03:26:23;3.00;99.90
10433;DHT22;5263;48.680;9.004;2022-11-11T03:28:49;3.00;99.90
10433;DHT22;5263;48.680;9.004;2022-11-11T03:31:15;3.00;99.90
10433;DHT22;5263;48.680;9.004;2022-11-11T03:33:40;2.90;99.90
10433;DHT22;5263;48.680;9.004;2022-11-11T03:36:06;2.90;99.90
10433;DHT22;5263;48.680;9.004;2022-11-11T03:38:32;3.00;99.90
10433;DHT22;5263;48.680;9.004;2022-11-11T03:40:58;2.90;99.90
10433;DHT22;5263;48.680;9.004;2022-11-11T03:43:25;3.00;99.90
10433;DHT22;5263;48.680;9.004;2022-11-11T03:45:52;3.00;99.90
10433;DHT22;5263;48.680;9.004;2022-11-11T03:48:18;3.00;99.90
10433;DHT22;5263;48.680;9.004;2022-11-11T03:50:46;2.90;99.90
10433;DHT22;5263;48.680;9.004;2022-11-11T03:53:13;3.00;99.90
10433;DHT22;5263;48.680;9.004;2022-11-11T03:55:39;2.80;99.90
10433;DHT22;5263;48.680;9.004;2022-11-11T03:58:05;2.80;99.90
10433;DHT22;5263;48.680;9.004;2022-11-11T04:00:31;2.90;99.90
10433;DHT22;5263;48.680;9.004;2022-11-11T04:03:05;2.80;99.90
10433;DHT22;5263;48.680;9.004;2022-11-11T04:05:50;2.70;99.90
10433;DHT22;5263;48.680;9.004;2022-11-11T04:08:34;2.70;99.90
10433;DHT22;5263;48.680;9.004;2022-11-11T04:11:27;2.80;99.90
10433;DHT22;5263;48.680;9.004;2022-11-11T04:13:55;2.80;99.90
10433;DHT22;5263;48.680;9.004;2022-11-11T04:16:41;2.60;99.90
10433;DHT22;5263;48.680;9.004;2022-11-11T04:19:07;2.50;99.90
10433;DHT22;5263;48.680;9.004;2022-11-11T04:21:51;2.60;99.90
10433;DHT22;5263;48.680;9.004;2022-11-11T04:24:18;2.60;99.90
10433;DHT22;5263;48.680;9.004;2022-11-11T04:27:09;2.50;99.90
10433;DHT22;5263;48.680;9.004;2022-11-11T04:29:35;2.40;99.90
10433;DHT22;5263;48.680;9.004;2022-11-11T04:32:06;2.50;99.90
10433;DHT22;5263;48.680;9.004;2022-11-11T04:34:55;2.50;99.90
10433;DHT22;5263;48.680;9.004;2022-11-11T04:37:22;2.50;99.90
10433;DHT22;5263;48.680;9.004;2022-11-11T04:39:49;2.50;99.90
10433;DHT22;5263;48.680;9.004;2022-11-11T04:42:33;2.60;99.90
10433;DHT22;5263;48.680;9.004;2022-11-11T04:45:00;2.60;99.90
10433;DHT22;5263;48.680;9.004;2022-11-11T04:47:55;2.60;99.90
10433;DHT22;5263;48.680;9.004;2022-11-11T04:50:22;2.60;99.90
10433;DHT22;5263;48.680;9.004;2022-11-11T04:52:48;2.50;99.90
10433;DHT22;5263;48.680;9.004;2022-11-11T04:55:14;2.70;99.90
10433;DHT22;5263;48.680;9.004;2022-11-11T04:57:59;2.70;99.90
10433;DHT22;5263;48.680;9.004;2022-11-11T05:00:24;2.70;99.90
10433;DHT22;5263;48.680;9.004;2022-11-11T05:02:53;2.70;99.90
10433;DHT22;5263;48.680;9.004;2022-11-11T05:05:37;2.60;99.90
10433;DHT22;5263;48.680;9.004;2022-11-11T05:08:22;2.80;99.90
10433;DHT22;5263;48.680;9.004;2022-11-11T05:11:06;2.80;99.90
10433;DHT22;5263;48.680;9.004;2022-11-11T05:13:32;2.60;99.90
10433;DHT22;5263;48.680;9.004;2022-11-11T05:16:19;2.70;99.90
10433;DHT22;5263;48.680;9.004;2022-11-11T05:19:05;2.60;99.90
10433;DHT22;5263;48.680;9.004;2022-11-11T05:21:51;2.20;99.90
10433;DHT22;5263;48.680;9.004;2022-11-11T05:24:18;2.10;99.90
10433;DHT22;5263;48.680;9.004;2022-11-11T05:27:02;2.20;99.90
10433;DHT22;5263;48.680;9.004;2022-11-11T05:29:28;2.10;99.90
10433;DHT22;5263;48.680;9.004;2022-11-11T05:31:53;2.20;99.90
10433;DHT22;5263;48.680;9.004;2022-11-11T05:34:19;2.30;99.90
10433;DHT22;5263;48.680;9.004;2022-11-11T05:36:44;2.30;99.90
10433;DHT22;5263;48.680;9.004;2022-11-11T05:39:10;2.20;99.90
10433;DHT22;5263;48.680;9.004;2022-11-11T05:41:35;2.40;99.90
10433;DHT22;5263;48.680;9.004;2022-11-11T05:44:01;2.40;99.90
10433;DHT22;5263;48.680;9.004;2022-11-11T05:46:26;2.50;99.90
10433;DHT22;5263;48.680;9.004;2022-11-11T05:48:52;2.60;99.90
10433;DHT22;5263;48.680;9.004;2022-11-11T05:51:36;2.60;99.90
10433;DHT22;5263;48.680;9.004;2022-11-11T05:54:02;2.60;99.90
10433;DHT22;5263;48.680;9.004;2022-11-11T05:56:27;2.60;99.90
10433;DHT22;5263;48.680;9.004;2022-11-11T05:58:53;2.20;99.90
10433;DHT22;5263;48.680;9.004;2022-11-11T06:01:18;2.00;99.90
10433;DHT22;5263;48.680;9.004;2022-11-11T06:03:44;2.20;99.90
10433;DHT22;5263;48.680;9.004;2022-11-11T06:06:11;2.30;99.90
10433;DHT22;5263;48.680;9.004;2022-11-11T06:08:37;2.60;99.90
10433;DHT22;5263;48.680;9.004;2022-11-11T06:11:02;3.20;99.90
10433;DHT22;5263;48.680;9.004;2022-11-11T06:13:28;3.00;99.90
10433;DHT22;5263;48.680;9.004;2022-11-11T06:15:55;3.00;99.90
10433;DHT22;5263;48.680;9.004;2022-11-11T06:18:22;2.90;99.90
10433;DHT22;5263;48.680;9.004;2022-11-11T06:20:55;2.90;99.90
10433;DHT22;5263;48.680;9.004;2022-11-11T06:23:21;3.00;99.90
10433;DHT22;5263;48.680;9.004;2022-11-11T06:25:47;3.00;99.90
10433;DHT22;5263;48.680;9.004;2022-11-11T06:28:32;2.70;99.90
10433;DHT22;5263;48.680;9.004;2022-11-11T06:30:57;2.70;99.90
10433;DHT22;5263;48.680;9.004;2022-11-11T06:33:23;2.60;99.90
10433;DHT22;5263;48.680;9.004;2022-11-11T06:35:49;2.20;99.90
10433;DHT22;5263;48.680;9.004;2022-11-11T06:38:15;2.30;99.90
10433;DHT22;5263;48.680;9.004;2022-11-11T06:40:41;2.50;99.90
10433;DHT22;5263;48.680;9.004;2022-11-11T06:43:07;2.50;99.90
10433;DHT22;5263;48.680;9.004;2022-11-11T06:45:33;2.50;99.90
10433;DHT22;5263;48.680;9.004;2022-11-11T06:47:59;2.50;99.90
10433;DHT22;5263;48.680;9.004;2022-11-11T06:50:25;2.60;99.90
10433;DHT22;5263;48.680;9.004;2022-11-11T06:52:52;2.70;99.90
10433;DHT22;5263;48.680;9.004;2022-11-11T06:55:18;2.60;99.90
10433;DHT22;5263;48.680;9.004;2022-11-11T06:57:43;2.40;99.90
10433;DHT22;5263;48.680;9.004;2022-11-11T07:00:10;2.40;99.90
10433;DHT22;5263;48.680;9.004;2022-11-11T07:02:35;2.50;99.90
10433;DHT22;5263;48.680;9.004;2022-11-11T07:05:01;2.60;99.90
10433;DHT22;5263;48.680;9.004;2022-11-11T07:07:27;2.60;99.90
10433;DHT22;5263;48.680;9.004;2022-11-11T07:09:53;2.70;99.90
10433;DHT22;5263;48.680;9.004;2022-11-11T07:12:20;2.90;99.90
10433;DHT22;5263;48.680;9.004;2022-11-11T07:14:46;3.00;99.90
10433;DHT22;5263;48.680;9.004;2022-11-11T07:17:12;3.10;99.90
10433;DHT22;5263;48.680;9.004;2022-11-11T07:19:37;3.20;99.90
10433;DHT22;5263;48.680;9.004;2022-11-11T07:22:03;3.30;99.90
10433;DHT22;5263;48.680;9.004;2022-11-11T07:24:29;3.40;99.90
10433;DHT22;5263;48.680;9.004;2022-11-11T07:26:54;3.40;99.90
10433;DHT22;5263;48.680;9.004;2022-11-11T07:29:20;3.50;99.90
10433;DHT22;5263;48.680;9.004;2022-11-11T07:31:46;3.70;99.90
10433;DHT22;5263;48.680;9.004;2022-11-11T07:34:11;3.80;99.90
10433;DHT22;5263;48.680;9.004;2022-11-11T07:36:37;4.00;99.90
10433;DHT22;5263;48.680;9.004;2022-11-11T07:39:02;4.10;99.90
10433;DHT22;5263;48.680;9.004;2022-11-11T07:41:28;4.00;99.90
10433;DHT22;5263;48.680;9.004;2022-11-11T07:43:53;3.90;99.90
10433;DHT22;5263;48.680;9.004;2022-11-11T07:46:19;3.90;99.90
10433;DHT22;5263;48.680;9.004;2022-11-11T07:48:44;4.20;99.90
10433;DHT22;5263;48.680;9.004;2022-11-11T07:51:10;4.30;99.90
10433;DHT22;5263;48.680;9.004;2022-11-11T07:53:36;4.20;99.90
10433;DHT22;5263;48.680;9.004;2022-11-11T07:56:01;4.30;99.90
10433;DHT22;5263;48.680;9.004;2022-11-11T07:58:27;4.50;99.90
10433;DHT22;5263;48.680;9.004;2022-11-11T08:00:52;4.80;99.90
10433;DHT22;5263;48.680;9.004;2022-11-11T08:03:18;4.80;99.90
10433;DHT22;5263;48.680;9.004;2022-11-11T08:05:44;5.00;99.90
10433;DHT22;5263;48.680;9.004;2022-11-11T08:08:10;5.10;99.90
10433;DHT22;5263;48.680;9.004;2022-11-11T08:10:36;5.00;99.90
10433;DHT22;5263;48.680;9.004;2022-11-11T08:13:02;5.20;99.90
10433;DHT22;5263;48.680;9.004;2022-11-11T08:15:47;5.50;99.90
10433;DHT22;5263;48.680;9.004;2022-11-11T08:18:13;5.80;99.90
10433;DHT22;5263;48.680;9.004;2022-11-11T08:20:38;6.30;99.90
10433;DHT22;5263;48.680;9.004;2022-11-11T08:23:04;6.70;99.90
10433;DHT22;5263;48.680;9.004;2022-11-11T08:25:34;7.00;99.90
10433;DHT22;5263;48.680;9.004;2022-11-11T08:28:03;7.20;99.90
10433;DHT22;5263;48.680;9.004;2022-11-11T08:30:29;7.50;99.90
10433;DHT22;5263;48.680;9.004;2022-11-11T08:32:58;7.70;99.90
10433;DHT22;5263;48.680;9.004;2022-11-11T08:35:24;7.90;99.90
10433;DHT22;5263;48.680;9.004;2022-11-11T08:37:51;8.00;99.90
10433;DHT22;5263;48.680;9.004;2022-11-11T08:40:17;8.10;99.90
10433;DHT22;5263;48.680;9.004;2022-11-11T08:42:43;8.30;99.90
10433;DHT22;5263;48.680;9.004;2022-11-11T08:45:09;8.40;99.90
10433;DHT22;5263;48.680;9.004;2022-11-11T08:47:35;8.50;99.90
10433;DHT22;5263;48.680;9.004;2022-11-11T08:50:02;8.60;99.90
10433;DHT22;5263;48.680;9.004;2022-11-11T08:52:27;8.70;99.90
10433;DHT22;5263;48.680;9.004;2022-11-11T08:54:53;8.60;99.90
10433;DHT22;5263;48.680;9.004;2022-11-11T08:57:18;8.60;99.90
10433;DHT22;5263;48.680;9.004;2022-11-11T08:59:44;8.40;99.90
10433;DHT22;5263;48.680;9.004;2022-11-11T09:02:11;8.30;99.90
10433;DHT22;5263;48.680;9.004;2022-11-11T09:04:38;8.30;99.90
10433;DHT22;5263;48.680;9.004;2022-11-11T09:07:05;8.40;99.90
10433;DHT22;5263;48.680;9.004;2022-11-11T09:09:30;8.60;99.90
10433;DHT22;5263;48.680;9.004;2022-11-11T09:11:56;8.70;99.90
10433;DHT22;5263;48.680;9.004;2022-11-11T09:14:21;8.90;99.90
10433;DHT22;5263;48.680;9.004;2022-11-11T09:16:47;9.00;99.90
10433;DHT22;5263;48.680;9.004;2022-11-11T09:19:13;9.10;99.90
10433;DHT22;5263;48.680;9.004;2022-11-11T09:21:38;9.30;99.90
10433;DHT22;5263;48.680;9.004;2022-11-11T09:24:04;9.40;99.90
10433;DHT22;5263;48.680;9.004;2022-11-11T09:26:30;8.90;99.90
10433;DHT22;5263;48.680;9.004;2022-11-11T09:28:55;8.90;99.90
10433;DHT22;5263;48.680;9.004;2022-11-11T09:31:21;8.90;99.90
10433;DHT22;5263;48.680;9.004;2022-11-11T09:33:51;9.50;99.90
10433;DHT22;5263;48.680;9.004;2022-11-11T09:36:17;9.80;99.90
10433;DHT22;5263;48.680;9.004;2022-11-11T09:38:43;10.30;99.90
10433;DHT22;5263;48.680;9.004;2022-11-11T09:41:21;10.30;99.90
10433;DHT22;5263;48.680;9.004;2022-11-11T09:43:56;11.10;99.90
10433;DHT22;5263;48.680;9.004;2022-11-11T09:46:43;12.00;99.90
10433;DHT22;5263;48.680;9.004;2022-11-11T09:54:47;15.80;99.90
10433;DHT22;5263;48.680;9.004;2022-11-11T09:57:52;16.10;99.90
10433;DHT22;5263;48.680;9.004;2022-11-11T10:00:25;17.20;99.90
10433;DHT22;5263;48.680;9.004;2022-11-11T10:02:58;17.60;99.90
10433;DHT22;5263;48.680;9.004;2022-11-11T10:05:37;17.70;99.90
10433;DHT22;5263;48.680;9.004;2022-11-11T10:08:29;18.20;99.90
10433;DHT22;5263;48.680;9.004;2022-11-11T10:11:02;18.30;99.90
10433;DHT22;5263;48.680;9.004;2022-11-11T10:13:31;17.70;99.90
10433;DHT22;5263;48.680;9.004;2022-11-11T10:21:49;17.90;99.90
10433;DHT22;5263;48.680;9.004;2022-11-11T10:24:20;16.70;99.90
10433;DHT22;5263;48.680;9.004;2022-11-11T10:26:47;17.20;99.90
10433;DHT22;5263;48.680;9.004;2022-11-11T10:29:21;17.90;99.90
10433;DHT22;5263;48.680;9.004;2022-11-11T10:32:27;17.30;99.90
10433;DHT22;5263;48.680;9.004;2022-11-11T10:35:21;17.70;99.90
10433;DHT22;5263;48.680;9.004;2022-11-11T10:37:44;17.30;99.90
10433;DHT22;5263;48.680;9.004;2022-11-11T10:40:29;18.00;99.90
10433;DHT22;5263;48.680;9.004;2022-11-11T10:42:58;19.90;99.90
10433;DHT22;5263;48.680;9.004;2022-11-11T10:45:48;20.00;99.90
10433;DHT22;5263;48.680;9.004;2022-11-11T10:48:22;18.10;99.90
10433;DHT22;5263;48.680;9.004;2022-11-11T10:50:51;18.10;99.90
10433;DHT22;5263;48.680;9.004;2022-11-11T10:58:50;18.70;99.90
10433;DHT22;5263;48.680;9.004;2022-11-11T11:01:21;22.00;99.00
10433;DHT22;5263;48.680;9.004;2022-11-11T11:03:54;24.40;93.70
10433;DHT22;5263;48.680;9.004;2022-11-11T11:06:24;25.80;85.30
10433;DHT22;5263;48.680;9.004;2022-11-11T11:08:55;22.10;91.80
10433;DHT22;5263;48.680;9.004;2022-11-11T11:14:02;19.00;96.60
10433;DHT22;5263;48.680;9.004;2022-11-11T11:16:35;18.80;98.50
10433;DHT22;5263;48.680;9.004;2022-11-11T11:21:58;18.60;98.80
10433;DHT22;5263;48.680;9.004;2022-11-11T11:24:33;19.20;98.30
10433;DHT22;5263;48.680;9.004;2022-11-11T11:27:02;19.10;99.80
10433;DHT22;5263;48.680;9.004;2022-11-11T11:32:17;20.00;96.20
10433;DHT22;5263;48.680;9.004;2022-11-11T11:34:52;20.40;95.40
10433;DHT22;5263;48.680;9.004;2022-11-11T11:37:20;19.10;96.80
10433;DHT22;5263;48.680;9.004;2022-11-11T11:39:47;19.20;98.40
10433;DHT22;5263;48.680;9.004;2022-11-11T11:42:35;18.90;97.90
10433;DHT22;5263;48.680;9.004;2022-11-11T11:45:25;20.30;97.50
10433;DHT22;5263;48.680;9.004;2022-11-11T11:47:59;18.70;97.80
10433;DHT22;5263;48.680;9.004;2022-11-11T11:50:51;18.20;97.70
10433;DHT22;5263;48.680;9.004;2022-11-11T12:01:42;20.30;97.20
10433;DHT22;5263;48.680;9.004;2022-11-11T12:04:27;19.40;96.80
10433;DHT22;5263;48.680;9.004;2022-11-11T12:07:10;19.10;97.10
10433;DHT22;5263;48.680;9.004;2022-11-11T12:12:56;19.30;97.20
10433;DHT22;5263;48.680;9.004;2022-11-11T12:15:39;19.60;97.40
10433;DHT22;5263;48.680;9.004;2022-11-11T12:18:30;20.40;96.20
10433;DHT22;5263;48.680;9.004;2022-11-11T12:21:14;19.70;96.70
10433;DHT22;5263;48.680;9.004;2022-11-11T12:23:55;20.90;95.80
10433;DHT22;5263;48.680;9.004;2022-11-11T12:26:39;22.00;93.50
10433;DHT22;5263;48.680;9.004;2022-11-11T12:29:47;22.50;91.50
10433;DHT22;5263;48.680;9.004;2022-11-11T12:46:50;23.50;79.90
10433;DHT22;5263;48.680;9.004;2022-11-11T12:52:29;20.00;90.10
10433;DHT22;5263;48.680;9.004;2022-11-11T12:55:02;18.90;92.90
10433;DHT22;5263;48.680;9.004;2022-11-11T12:57:37;19.30;93.30
10433;DHT22;5263;48.680;9.004;2022-11-11T13:00:16;18.10;93.40
10433;DHT22;5263;48.680;9.004;2022-11-11T13:05:46;17.30;95.60
10433;DHT22;5263;48.680;9.004;2022-11-11T13:14:33;17.40;99.90
10433;DHT22;5263;48.680;9.004;2022-11-11T13:17:09;18.70;97.50
10433;DHT22;5263;48.680;9.004;2022-11-11T13:19:50;19.10;96.60
10433;DHT22;5263;48.680;9.004;2022-11-11T13:22:24;18.80;96.90
10433;DHT22;5263;48.680;9.004;2022-11-11T13:24:50;18.70;97.90
10433;DHT22;5263;48.680;9.004;2022-11-11T13:30:33;18.20;97.40
10433;DHT22;5263;48.680;9.004;2022-11-11T13:33:10;17.50;98.40
10433;DHT22;5263;48.680;9.004;2022-11-11T13:35:51;17.20;99.90
10433;DHT22;5263;48.680;9.004;2022-11-11T13:38:34;16.80;99.90
10433;DHT22;5263;48.680;9.004;2022-11-11T13:41:06;16.70;99.90
10433;DHT22;5263;48.680;9.004;2022-11-11T13:43:43;17.40;99.90
10433;DHT22;5263;48.680;9.004;2022-11-11T13:46:32;17.00;99.90
10433;DHT22;5263;48.680;9.004;2022-11-11T13:48:59;16.70;99.90
10433;DHT22;5263;48.680;9.004;2022-11-11T13:51:40;16.80;99.90
10433;DHT22;5263;48.680;9.004;2022-11-11T13:54:33;17.50;99.90
10433;DHT22;5263;48.680;9.004;2022-11-11T13:57:15;18.00;99.90
10433;DHT22;5263;48.680;9.004;2022-11-11T13:59:55;18.40;99.90
10433;DHT22;5263;48.680;9.004;2022-11-11T14:12:51;16.70;99.90
10433;DHT22;5263;48.680;9.004;2022-11-11T14:17:59;16.50;99.90
10433;DHT22;5263;48.680;9.004;2022-11-11T14:20:38;16.50;99.90
10433;DHT22;5263;48.680;9.004;2022-11-11T14:25:49;16.10;99.90
10433;DHT22;5263;48.680;9.004;2022-11-11T14:28:28;16.20;99.90
10433;DHT22;5263;48.680;9.004;2022-11-11T14:36:23;16.60;99.90
10433;DHT22;5263;48.680;9.004;2022-11-11T14:38:54;16.50;99.90
10433;DHT22;5263;48.680;9.004;2022-11-11T15:03:02;15.10;99.90
10433;DHT22;5263;48.680;9.004;2022-11-11T15:06:02;15.00;99.90
10433;DHT22;5263;48.680;9.004;2022-11-11T15:08:57;14.90;99.90
10433;DHT22;5263;48.680;9.004;2022-11-11T15:27:38;13.70;99.90
10433;DHT22;5263;48.680;9.004;2022-11-11T15:30:16;13.50;99.90
10433;DHT22;5263;48.680;9.004;2022-11-11T15:32:59;13.40;99.90
10433;DHT22;5263;48.680;9.004;2022-11-11T15:35:38;13.30;99.90
10433;DHT22;5263;48.680;9.004;2022-11-11T15:38:10;13.10;99.90
10433;DHT22;5263;48.680;9.004;2022-11-11T15:40:52;12.90;99.90
10433;DHT22;5263;48.680;9.004;2022-11-11T15:43:27;12.70;99.90
10433;DHT22;5263;48.680;9.004;2022-11-11T15:46:04;12.50;99.90
10433;DHT22;5263;48.680;9.004;2022-11-11T15:48:38;12.40;99.90
10433;DHT22;5263;48.680;9.004;2022-11-11T15:53:46;12.00;99.90
10433;DHT22;5263;48.680;9.004;2022-11-11T15:56:12;11.90;99.90
10433;DHT22;5263;48.680;9.004;2022-11-11T15:58:50;11.80;99.90
10433;DHT22;5263;48.680;9.004;2022-11-11T16:01:17;11.60;99.90
10433;DHT22;5263;48.680;9.004;2022-11-11T16:03:43;11.40;99.90
10433;DHT22;5263;48.680;9.004;2022-11-11T16:06:13;11.40;99.90
10433;DHT22;5263;48.680;9.004;2022-11-11T16:08:44;11.30;99.90
10433;DHT22;5263;48.680;9.004;2022-11-11T16:11:15;11.20;99.90
10433;DHT22;5263;48.680;9.004;2022-11-11T16:13:58;11.10;99.90
10433;DHT22;5263;48.680;9.004;2022-11-11T16:16:32;10.90;99.90
10433;DHT22;5263;48.680;9.004;2022-11-11T16:19:19;10.80;99.90
10433;DHT22;5263;48.680;9.004;2022-11-11T16:21:54;10.80;99.90
10433;DHT22;5263;48.680;9.004;2022-11-11T16:24:28;10.60;99.90
10433;DHT22;5263;48.680;9.004;2022-11-11T16:26:55;10.40;99.90
10433;DHT22;5263;48.680;9.004;2022-11-11T16:29:22;10.30;99.90
10433;DHT22;5263;48.680;9.004;2022-11-11T16:31:49;10.10;99.90
10433;DHT22;5263;48.680;9.004;2022-11-11T16:37:04;9.60;99.90
10433;DHT22;5263;48.680;9.004;2022-11-11T16:39:31;9.60;99.90
10433;DHT22;5263;48.680;9.004;2022-11-11T16:41:58;9.50;99.90
10433;DHT22;5263;48.680;9.004;2022-11-11T16:44:48;9.20;99.90
10433;DHT22;5263;48.680;9.004;2022-11-11T16:50:22;9.40;99.90
10433;DHT22;5263;48.680;9.004;2022-11-11T16:52:53;9.30;99.90
10433;DHT22;5263;48.680;9.004;2022-11-11T16:55:36;9.10;99.90
10433;DHT22;5263;48.680;9.004;2022-11-11T16:58:18;8.80;99.90
10433;DHT22;5263;48.680;9.004;2022-11-11T17:00:45;8.70;99.90
10433;DHT22;5263;48.680;9.004;2022-11-11T17:03:22;8.80;99.90
10433;DHT22;5263;48.680;9.004;2022-11-11T17:05:53;8.70;99.90
10433;DHT22;5263;48.680;9.004;2022-11-11T17:08:37;8.80;99.90
10433;DHT22;5263;48.680;9.004;2022-11-11T17:13:56;8.80;99.90
10433;DHT22;5263;48.680;9.004;2022-11-11T17:16:22;8.60;99.90
10433;DHT22;5263;48.680;9.004;2022-11-11T17:18:47;8.50;99.90
10433;DHT22;5263;48.680;9.004;2022-11-11T17:21:13;8.20;99.90
10433;DHT22;5263;48.680;9.004;2022-11-11T17:23:39;8.00;99.90
10433;DHT22;5263;48.680;9.004;2022-11-11T17:26:04;8.10;99.90
10433;DHT22;5263;48.680;9.004;2022-11-11T17:28:34;8.00;99.90
10433;DHT22;5263;48.680;9.004;2022-11-11T17:31:05;8.00;99.90
10433;DHT22;5263;48.680;9.004;2022-11-11T17:33:30;8.00;99.90
10433;DHT22;5263;48.680;9.004;2022-11-11T17:35:56;7.90;99.90
10433;DHT22;5263;48.680;9.004;2022-11-11T17:38:23;7.90;99.90
10433;DHT22;5263;48.680;9.004;2022-11-11T17:40:48;7.90;99.90
10433;DHT22;5263;48.680;9.004;2022-11-11T17:43:14;7.90;99.90
10433;DHT22;5263;48.680;9.004;2022-11-11T17:45:41;8.00;99.90
10433;DHT22;5263;48.680;9.004;2022-11-11T17:48:08;8.00;99.90
10433;DHT22;5263;48.680;9.004;2022-11-11T17:50:36;7.80;99.90
10433;DHT22;5263;48.680;9.004;2022-11-11T17:53:02;7.70;99.90
10433;DHT22;5263;48.680;9.004;2022-11-11T17:55:29;7.70;99.90
10433;DHT22;5263;48.680;9.004;2022-11-11T17:57:57;7.30;99.90
10433;DHT22;5263;48.680;9.004;2022-11-11T18:00:22;7.10;99.90
10433;DHT22;5263;48.680;9.004;2022-11-11T18:02:48;7.20;99.90
10433;DHT22;5263;48.680;9.004;2022-11-11T18:05:14;7.10;99.90
10433;DHT22;5263;48.680;9.004;2022-11-11T18:07:40;7.20;99.90
10433;DHT22;5263;48.680;9.004;2022-11-11T18:10:06;7.00;99.90
10433;DHT22;5263;48.680;9.004;2022-11-11T18:12:32;7.10;99.90
10433;DHT22;5263;48.680;9.004;2022-11-11T18:14:58;7.00;99.90
10433;DHT22;5263;48.680;9.004;2022-11-11T18:17:23;6.90;99.90
10433;DHT22;5263;48.680;9.004;2022-11-11T18:19:49;6.70;99.90
10433;DHT22;5263;48.680;9.004;2022-11-11T18:22:14;6.80;99.90
10433;DHT22;5263;48.680;9.004;2022-11-11T18:24:40;6.90;99.90
10433;DHT22;5263;48.680;9.004;2022-11-11T18:27:06;6.80;99.90
10433;DHT22;5263;48.680;9.004;2022-11-11T18:29:31;6.80;99.90
10433;DHT22;5263;48.680;9.004;2022-11-11T18:31:58;6.70;99.90
10433;DHT22;5263;48.680;9.004;2022-11-11T18:34:24;6.70;99.90
10433;DHT22;5263;48.680;9.004;2022-11-11T18:36:51;6.80;99.90
10433;DHT22;5263;48.680;9.004;2022-11-11T18:39:16;6.40;99.90
10433;DHT22;5263;48.680;9.004;2022-11-11T18:41:42;6.40;99.90
10433;DHT22;5263;48.680;9.004;2022-11-11T18:44:08;6.60;99.90
10433;DHT22;5263;48.680;9.004;2022-11-11T18:46:34;6.70;99.90
10433;DHT22;5263;48.680;9.004;2022-11-11T18:49:02;6.60;99.90
10433;DHT22;5263;48.680;9.004;2022-11-11T18:51:29;6.50;99.90
10433;DHT22;5263;48.680;9.004;2022-11-11T18:53:55;6.30;99.90
10433;DHT22;5263;48.680;9.004;2022-11-11T18:56:23;6.30;99.90
10433;DHT22;5263;48.680;9.004;2022-11-11T18:58:52;6.30;99.90
10433;DHT22;5263;48.680;9.004;2022-11-11T19:01:20;6.30;99.90
10433;DHT22;5263;48.680;9.004;2022-11-11T19:03:49;6.30;99.90
10433;DHT22;5263;48.680;9.004;2022-11-11T19:06:15;6.40;99.90
10433;DHT22;5263;48.680;9.004;2022-11-11T19:08:41;6.40;99.90
10433;DHT22;5263;48.680;9.004;2022-11-11T19:11:08;6.30;99.90
10433;DHT22;5263;48.680;9.004;2022-11-11T19:13:36;6.00;99.90
10433;DHT22;5263;48.680;9.004;2022-11-11T19:18:30;6.10;99.90
10433;DHT22;5263;48.680;9.004;2022-11-11T19:20:56;6.20;99.90
10433;DHT22;5263;48.680;9.004;2022-11-11T19:23:21;6.30;99.90
10433;DHT22;5263;48.680;9.004;2022-11-11T19:25:47;6.10;99.90
10433;DHT22;5263;48.680;9.004;2022-11-11T19:28:13;5.90;99.90
10433;DHT22;5263;48.680;9.004;2022-11-11T19:30:40;5.90;99.90
10433;DHT22;5263;48.680;9.004;2022-11-11T19:33:06;5.90;99.90
10433;DHT22;5263;48.680;9.004;2022-11-11T19:35:32;5.90;99.90
10433;DHT22;5263;48.680;9.004;2022-11-11T19:37:57;5.70;99.90
10433;DHT22;5263;48.680;9.004;2022-11-11T19:40:23;5.80;99.90
10433;DHT22;5263;48.680;9.004;2022-11-11T19:42:49;5.70;99.90
10433;DHT22;5263;48.680;9.004;2022-11-11T19:45:15;5.70;99.90
10433;DHT22;5263;48.680;9.004;2022-11-11T19:47:41;5.70;99.90
10433;DHT22;5263;48.680;9.004;2022-11-11T19:50:07;5.80;99.90
10433;DHT22;5263;48.680;9.004;2022-11-11T19:52:32;5.80;99.90
10433;DHT22;5263;48.680;9.004;2022-11-11T19:54:58;5.70;99.90
10433;DHT22;5263;48.680;9.004;2022-11-11T19:57:23;5.70;99.90
10433;DHT22;5263;48.680;9.004;2022-11-11T19:59:50;5.60;99.90
10433;DHT22;5263;48.680;9.004;2022-11-11T20:02:16;5.70;99.90
10433;DHT22;5263;48.680;9.004;2022-11-11T20:04:42;5.70;99.90
10433;DHT22;5263;48.680;9.004;2022-11-11T20:07:08;5.50;99.90
10433;DHT22;5263;48.680;9.004;2022-11-11T20:09:34;5.30;99.90
10433;DHT22;5263;48.680;9.004;2022-11-11T20:11:59;5.40;99.90
10433;DHT22;5263;48.680;9.004;2022-11-11T20:14:25;5.60;99.90
10433;DHT22;5263;48.680;9.004;2022-11-11T20:16:51;5.60;99.90
10433;DHT22;5263;48.680;9.004;2022-11-11T20:19:17;5.50;99.90
10433;DHT22;5263;48.680;9.004;2022-11-11T20:21:42;5.60;99.90
10433;DHT22;5263;48.680;9.004;2022-11-11T20:24:09;5.40;99.90
10433;DHT22;5263;48.680;9.004;2022-11-11T20:26:35;5.40;99.90
10433;DHT22;5263;48.680;9.004;2022-11-11T20:29:01;5.50;99.90